Aérodrome :
LOGIN :

S'inscrire | Disclaimer

   EN    FR    IT 

 










Légende :    VFR   VFR Marginal   IFR   IFR Intensif   IFR Très Intensif
Visi : 
Plafond : 
>= 8 km
>= 3000ft
5 à 8 km
1000 à 3000 ft
1500m à 5 km
500 à 1000 ft
800 à 1500m
200 à 500 ft
< 800m
< 200 ft
Symboles :   Orages  Brouillard  Fortes neiges  Fortes précipitations  Vent > 20 kt
SIGMETs :   Divers  Orages  Givrage  Turbulence  Onde Orograph.  Cendres Volcan.







- Altitude de l'aérodrome : 416 ft
- Code IATA : OVD


LEAS - Asturias

DERNIER METAR :
  • 200830Z 27009KT 240V300 9000 FEW015TCU BKN050 08/07 Q1016 RESHRA TEMPO 3000 SHRA BKN014 BKN020TCU

METARs EXPIRÉS :
  • 200809Z 25007KT 3000 SHRA FEW015TCU BKN042 08/07 Q1016 NOSIG
  • 200730Z 27006KT 9999 FEW015TCU BKN042 08/07 Q1016 TEMPO 3000 SHRA BKN014 BKN020TCU
  • 200706Z 29007KT 260V320 9999 SCT015TCU BKN045 08/06 Q1016 RESHRA TEMPO 3000 SHRA BKN014 BKN020TCU
  • 200649Z 29009KT 270V330 5000 SHRA SCT015TCU BKN042 09/08 Q1015 TEMPO 3000 SHRA BKN014 BKN020TCU
  • 200630Z 30009KT 270V330 9999 FEW015 BKN042 10/08 Q1015 TEMPO 4000 SHRA BKN025TCU
  • 200600Z 30007G19KT 260V340 9999 SCT023 BKN047 10/06 Q1015 TEMPO SHRA SCT025TCU

TAF TAF LEAS
Valide du 20 à 09h jusqu'au 21 à 09h UTC


200800Z 2009/2109 31009KT 9000 SCT018 SCT035 TX11/2014Z TN05/2107Z
TEMPO 2009/2018 32015G25KT
TEMPO 2009/2109 3000 SHRA BKN010 SCT025TCU
PROB30
TEMPO 2009/2109 3000 TS SHRAGR BKN010 SCT025CB
Pas de NOTAMs connus pour ce terrain.



MET'MAP, la Météo Aéronautique d'un coup d'oeil ! - Copyright ORBIFLY Décembre 2007 - Disclaimer

ORBIFLY MET'MAP TEAM :

Programmation & Développement : Alexandra Zaïnal
Conception & Développement : Baudouin d'Aumeries
Co-Programmation & Développement : Marc-Olivier Méhu
Soutien technique & logistique : Manuel Goepfert

Contact : metmap@orbifly.com




SOURCES & CREDITS :

   NOAA